sensor_id;sensor_type;location;lat;lon;timestamp;P1;durP1;ratioP1;P2;durP2;ratioP2
58966;SDS011;44744;51.894;5.080;2022-12-18T00:00:27;59.50;;;26.90;;
58966;SDS011;44744;51.894;5.080;2022-12-18T00:01:31;53.30;;;26.80;;
58966;SDS011;44744;51.894;5.080;2022-12-18T00:02:33;50.40;;;26.60;;
58966;SDS011;44744;51.894;5.080;2022-12-18T00:03:33;56.30;;;29.80;;
58966;SDS011;44744;51.894;5.080;2022-12-18T00:04:34;51.20;;;26.90;;
58966;SDS011;44744;51.894;5.080;2022-12-18T00:05:34;49.50;;;27.60;;
58966;SDS011;44744;51.894;5.080;2022-12-18T00:06:35;48.40;;;26.50;;
58966;SDS011;44744;51.894;5.080;2022-12-18T00:07:35;52.50;;;28.00;;
58966;SDS011;44744;51.894;5.080;2022-12-18T00:08:36;54.30;;;28.40;;
58966;SDS011;44744;51.894;5.080;2022-12-18T00:09:36;54.80;;;28.60;;
58966;SDS011;44744;51.894;5.080;2022-12-18T00:10:36;58.00;;;29.10;;
58966;SDS011;44744;51.894;5.080;2022-12-18T00:11:36;52.60;;;27.30;;
58966;SDS011;44744;51.894;5.080;2022-12-18T00:12:37;66.90;;;29.10;;
58966;SDS011;44744;51.894;5.080;2022-12-18T00:13:37;57.00;;;27.80;;
58966;SDS011;44744;51.894;5.080;2022-12-18T00:14:38;53.60;;;27.00;;
58966;SDS011;44744;51.894;5.080;2022-12-18T00:15:38;52.10;;;26.10;;
58966;SDS011;44744;51.894;5.080;2022-12-18T00:16:39;46.90;;;25.80;;
58966;SDS011;44744;51.894;5.080;2022-12-18T00:17:42;46.60;;;24.60;;
58966;SDS011;44744;51.894;5.080;2022-12-18T00:18:42;49.20;;;25.50;;
58966;SDS011;44744;51.894;5.080;2022-12-18T00:19:43;53.10;;;24.90;;
58966;SDS011;44744;51.894;5.080;2022-12-18T00:20:43;49.60;;;24.10;;
58966;SDS011;44744;51.894;5.080;2022-12-18T00:21:43;47.50;;;24.30;;
58966;SDS011;44744;51.894;5.080;2022-12-18T00:22:44;51.50;;;24.80;;
58966;SDS011;44744;51.894;5.080;2022-12-18T00:23:44;44.80;;;23.80;;
58966;SDS011;44744;51.894;5.080;2022-12-18T00:24:45;49.80;;;25.60;;
58966;SDS011;44744;51.894;5.080;2022-12-18T00:25:45;47.10;;;25.70;;
58966;SDS011;44744;51.894;5.080;2022-12-18T00:26:46;48.80;;;26.60;;
58966;SDS011;44744;51.894;5.080;2022-12-18T00:27:46;49.60;;;26.70;;
58966;SDS011;44744;51.894;5.080;2022-12-18T00:28:47;50.10;;;27.50;;
58966;SDS011;44744;51.894;5.080;2022-12-18T00:29:48;48.50;;;26.70;;
58966;SDS011;44744;51.894;5.080;2022-12-18T00:30:48;46.70;;;25.30;;
58966;SDS011;44744;51.894;5.080;2022-12-18T00:31:48;49.00;;;27.10;;
58966;SDS011;44744;51.894;5.080;2022-12-18T00:32:49;48.10;;;25.90;;
58966;SDS011;44744;51.894;5.080;2022-12-18T00:33:49;48.90;;;26.20;;
58966;SDS011;44744;51.894;5.080;2022-12-18T00:34:50;54.50;;;27.10;;
58966;SDS011;44744;51.894;5.080;2022-12-18T00:35:50;49.30;;;25.80;;
58966;SDS011;44744;51.894;5.080;2022-12-18T00:36:50;49.00;;;26.90;;
58966;SDS011;44744;51.894;5.080;2022-12-18T00:37:51;46.00;;;24.00;;
58966;SDS011;44744;51.894;5.080;2022-12-18T00:38:52;43.60;;;23.50;;
58966;SDS011;44744;51.894;5.080;2022-12-18T00:39:53;46.00;;;24.40;;
58966;SDS011;44744;51.894;5.080;2022-12-18T00:40:54;40.30;;;22.60;;
58966;SDS011;44744;51.894;5.080;2022-12-18T00:41:54;38.20;;;21.80;;
58966;SDS011;44744;51.894;5.080;2022-12-18T00:42:54;45.40;;;23.50;;
58966;SDS011;44744;51.894;5.080;2022-12-18T00:43:54;43.50;;;24.10;;
58966;SDS011;44744;51.894;5.080;2022-12-18T00:44:55;41.90;;;21.90;;
58966;SDS011;44744;51.894;5.080;2022-12-18T00:45:55;40.70;;;23.30;;
58966;SDS011;44744;51.894;5.080;2022-12-18T00:46:55;38.60;;;23.00;;
58966;SDS011;44744;51.894;5.080;2022-12-18T00:47:56;44.70;;;23.90;;
58966;SDS011;44744;51.894;5.080;2022-12-18T00:48:57;37.60;;;22.40;;
58966;SDS011;44744;51.894;5.080;2022-12-18T00:49:57;42.20;;;23.10;;
58966;SDS011;44744;51.894;5.080;2022-12-18T00:50:58;42.50;;;24.70;;
58966;SDS011;44744;51.894;5.080;2022-12-18T00:51:58;47.90;;;24.70;;
58966;SDS011;44744;51.894;5.080;2022-12-18T00:52:58;42.70;;;24.40;;
58966;SDS011;44744;51.894;5.080;2022-12-18T00:54:00;42.00;;;23.50;;
58966;SDS011;44744;51.894;5.080;2022-12-18T00:55:01;46.00;;;24.90;;
58966;SDS011;44744;51.894;5.080;2022-12-18T00:56:01;42.80;;;23.60;;
58966;SDS011;44744;51.894;5.080;2022-12-18T00:57:01;44.40;;;24.30;;
58966;SDS011;44744;51.894;5.080;2022-12-18T00:58:02;46.60;;;25.50;;
58966;SDS011;44744;51.894;5.080;2022-12-18T00:59:02;42.90;;;24.20;;
58966;SDS011;44744;51.894;5.080;2022-12-18T01:00:03;47.70;;;25.20;;
58966;SDS011;44744;51.894;5.080;2022-12-18T01:01:05;50.70;;;26.20;;
58966;SDS011;44744;51.894;5.080;2022-12-18T01:02:06;47.70;;;24.60;;
58966;SDS011;44744;51.894;5.080;2022-12-18T01:03:06;49.40;;;25.50;;
58966;SDS011;44744;51.894;5.080;2022-12-18T01:04:07;49.10;;;24.50;;
58966;SDS011;44744;51.894;5.080;2022-12-18T01:05:08;50.40;;;25.40;;
58966;SDS011;44744;51.894;5.080;2022-12-18T01:06:10;46.90;;;25.10;;
58966;SDS011;44744;51.894;5.080;2022-12-18T01:07:11;53.60;;;25.70;;
58966;SDS011;44744;51.894;5.080;2022-12-18T01:08:12;51.30;;;25.20;;
58966;SDS011;44744;51.894;5.080;2022-12-18T01:09:12;52.10;;;27.20;;
58966;SDS011;44744;51.894;5.080;2022-12-18T01:10:13;49.00;;;26.40;;
58966;SDS011;44744;51.894;5.080;2022-12-18T01:11:15;51.00;;;27.50;;
58966;SDS011;44744;51.894;5.080;2022-12-18T01:12:17;55.30;;;28.40;;
58966;SDS011;44744;51.894;5.080;2022-12-18T01:13:18;54.00;;;28.70;;
58966;SDS011;44744;51.894;5.080;2022-12-18T01:14:18;47.90;;;26.00;;
58966;SDS011;44744;51.894;5.080;2022-12-18T01:15:21;52.70;;;27.30;;
58966;SDS011;44744;51.894;5.080;2022-12-18T01:16:22;54.50;;;27.40;;
58966;SDS011;44744;51.894;5.080;2022-12-18T01:17:22;50.80;;;26.50;;
58966;SDS011;44744;51.894;5.080;2022-12-18T01:18:23;52.90;;;27.40;;
58966;SDS011;44744;51.894;5.080;2022-12-18T01:19:23;49.30;;;27.70;;
58966;SDS011;44744;51.894;5.080;2022-12-18T01:20:24;56.80;;;27.20;;
58966;SDS011;44744;51.894;5.080;2022-12-18T01:21:24;55.80;;;28.40;;
58966;SDS011;44744;51.894;5.080;2022-12-18T01:22:24;55.50;;;27.20;;
58966;SDS011;44744;51.894;5.080;2022-12-18T01:23:24;51.60;;;26.40;;
58966;SDS011;44744;51.894;5.080;2022-12-18T01:24:26;55.50;;;27.60;;
58966;SDS011;44744;51.894;5.080;2022-12-18T01:25:26;54.40;;;26.60;;
58966;SDS011;44744;51.894;5.080;2022-12-18T01:26:27;51.70;;;26.40;;
58966;SDS011;44744;51.894;5.080;2022-12-18T01:27:27;51.70;;;26.60;;
58966;SDS011;44744;51.894;5.080;2022-12-18T01:28:28;53.30;;;27.00;;
58966;SDS011;44744;51.894;5.080;2022-12-18T01:29:28;48.80;;;25.70;;
58966;SDS011;44744;51.894;5.080;2022-12-18T01:30:29;48.80;;;24.30;;
58966;SDS011;44744;51.894;5.080;2022-12-18T01:31:30;55.40;;;28.30;;
58966;SDS011;44744;51.894;5.080;2022-12-18T01:32:32;50.80;;;26.70;;
58966;SDS011;44744;51.894;5.080;2022-12-18T01:33:32;49.20;;;27.90;;
58966;SDS011;44744;51.894;5.080;2022-12-18T01:34:34;52.90;;;29.00;;
58966;SDS011;44744;51.894;5.080;2022-12-18T01:35:44;53.00;;;28.00;;
58966;SDS011;44744;51.894;5.080;2022-12-18T01:36:44;55.80;;;28.80;;
58966;SDS011;44744;51.894;5.080;2022-12-18T01:37:45;53.30;;;28.70;;
58966;SDS011;44744;51.894;5.080;2022-12-18T01:38:45;55.00;;;28.50;;
58966;SDS011;44744;51.894;5.080;2022-12-18T01:39:47;47.90;;;26.50;;
58966;SDS011;44744;51.894;5.080;2022-12-18T01:40:47;52.10;;;27.90;;
58966;SDS011;44744;51.894;5.080;2022-12-18T01:41:47;53.20;;;28.00;;
58966;SDS011;44744;51.894;5.080;2022-12-18T01:42:54;55.10;;;28.00;;
58966;SDS011;44744;51.894;5.080;2022-12-18T01:43:55;53.30;;;26.50;;
58966;SDS011;44744;51.894;5.080;2022-12-18T01:45:01;48.60;;;25.90;;
58966;SDS011;44744;51.894;5.080;2022-12-18T01:46:02;55.70;;;28.40;;
58966;SDS011;44744;51.894;5.080;2022-12-18T01:47:02;55.80;;;28.40;;
58966;SDS011;44744;51.894;5.080;2022-12-18T01:48:04;55.70;;;26.00;;
58966;SDS011;44744;51.894;5.080;2022-12-18T01:49:07;54.60;;;26.00;;
58966;SDS011;44744;51.894;5.080;2022-12-18T01:50:10;51.20;;;25.80;;
58966;SDS011;44744;51.894;5.080;2022-12-18T01:51:11;52.20;;;27.40;;
58966;SDS011;44744;51.894;5.080;2022-12-18T01:52:13;53.20;;;27.10;;
58966;SDS011;44744;51.894;5.080;2022-12-18T01:53:17;47.20;;;25.60;;
58966;SDS011;44744;51.894;5.080;2022-12-18T01:54:22;46.70;;;26.00;;
58966;SDS011;44744;51.894;5.080;2022-12-18T01:55:23;52.30;;;27.00;;
58966;SDS011;44744;51.894;5.080;2022-12-18T01:56:26;55.00;;;28.80;;
58966;SDS011;44744;51.894;5.080;2022-12-18T01:57:26;55.50;;;27.70;;
58966;SDS011;44744;51.894;5.080;2022-12-18T01:58:39;51.50;;;26.80;;
58966;SDS011;44744;51.894;5.080;2022-12-18T01:59:47;51.40;;;28.60;;
58966;SDS011;44744;51.894;5.080;2022-12-18T02:00:51;53.40;;;27.20;;
58966;SDS011;44744;51.894;5.080;2022-12-18T02:01:51;53.90;;;29.10;;
58966;SDS011;44744;51.894;5.080;2022-12-18T02:02:51;61.50;;;29.10;;
58966;SDS011;44744;51.894;5.080;2022-12-18T02:03:52;54.60;;;28.70;;
58966;SDS011;44744;51.894;5.080;2022-12-18T02:04:53;54.20;;;27.30;;
58966;SDS011;44744;51.894;5.080;2022-12-18T02:06:16;55.80;;;28.20;;
58966;SDS011;44744;51.894;5.080;2022-12-18T02:07:31;54.60;;;27.40;;
58966;SDS011;44744;51.894;5.080;2022-12-18T02:08:44;59.50;;;28.30;;
58966;SDS011;44744;51.894;5.080;2022-12-18T02:10:20;52.20;;;25.30;;
58966;SDS011;44744;51.894;5.080;2022-12-18T02:12:40;52.80;;;25.50;;
58966;SDS011;44744;51.894;5.080;2022-12-18T02:15:09;48.10;;;25.30;;
58966;SDS011;44744;51.894;5.080;2022-12-18T02:16:38;48.50;;;24.00;;
58966;SDS011;44744;51.894;5.080;2022-12-18T02:17:50;49.70;;;25.10;;
58966;SDS011;44744;51.894;5.080;2022-12-18T02:18:56;46.30;;;25.00;;
58966;SDS011;44744;51.894;5.080;2022-12-18T02:24:42;48.40;;;24.90;;
58966;SDS011;44744;51.894;5.080;2022-12-18T02:27:18;53.10;;;26.00;;
58966;SDS011;44744;51.894;5.080;2022-12-18T02:28:19;49.60;;;26.60;;
58966;SDS011;44744;51.894;5.080;2022-12-18T02:29:24;49.50;;;25.90;;
58966;SDS011;44744;51.894;5.080;2022-12-18T02:30:30;47.30;;;24.80;;
58966;SDS011;44744;51.894;5.080;2022-12-18T02:31:37;51.80;;;26.50;;
58966;SDS011;44744;51.894;5.080;2022-12-18T02:32:44;53.00;;;28.00;;
58966;SDS011;44744;51.894;5.080;2022-12-18T02:33:49;50.40;;;25.10;;
58966;SDS011;44744;51.894;5.080;2022-12-18T02:34:53;54.00;;;26.80;;
58966;SDS011;44744;51.894;5.080;2022-12-18T02:35:57;48.60;;;25.20;;
58966;SDS011;44744;51.894;5.080;2022-12-18T02:36:59;48.50;;;25.80;;
58966;SDS011;44744;51.894;5.080;2022-12-18T02:38:03;50.80;;;25.00;;
58966;SDS011;44744;51.894;5.080;2022-12-18T02:39:04;55.10;;;25.80;;
58966;SDS011;44744;51.894;5.080;2022-12-18T02:40:08;47.80;;;23.90;;
58966;SDS011;44744;51.894;5.080;2022-12-18T02:41:09;47.50;;;24.70;;
58966;SDS011;44744;51.894;5.080;2022-12-18T02:42:11;50.10;;;24.90;;
58966;SDS011;44744;51.894;5.080;2022-12-18T02:43:13;48.60;;;24.60;;
58966;SDS011;44744;51.894;5.080;2022-12-18T02:44:15;46.10;;;24.60;;
58966;SDS011;44744;51.894;5.080;2022-12-18T02:45:15;48.30;;;25.20;;
58966;SDS011;44744;51.894;5.080;2022-12-18T02:46:49;51.70;;;24.60;;
58966;SDS011;44744;51.894;5.080;2022-12-18T02:47:43;44.70;;;23.90;;
58966;SDS011;44744;51.894;5.080;2022-12-18T02:48:47;43.60;;;24.40;;
58966;SDS011;44744;51.894;5.080;2022-12-18T02:51:28;45.10;;;23.30;;
58966;SDS011;44744;51.894;5.080;2022-12-18T02:56:53;51.80;;;25.00;;
58966;SDS011;44744;51.894;5.080;2022-12-18T02:58:06;48.60;;;25.00;;
58966;SDS011;44744;51.894;5.080;2022-12-18T02:59:13;43.80;;;24.00;;
58966;SDS011;44744;51.894;5.080;2022-12-18T03:00:21;54.50;;;25.20;;
58966;SDS011;44744;51.894;5.080;2022-12-18T03:02:51;58.20;;;25.70;;
58966;SDS011;44744;51.894;5.080;2022-12-18T03:04:20;46.10;;;24.30;;
58966;SDS011;44744;51.894;5.080;2022-12-18T03:06:41;42.20;;;21.50;;
58966;SDS011;44744;51.894;5.080;2022-12-18T03:07:48;44.90;;;21.70;;
58966;SDS011;44744;51.894;5.080;2022-12-18T03:10:24;46.90;;;23.10;;
58966;SDS011;44744;51.894;5.080;2022-12-18T03:11:28;42.30;;;24.40;;
58966;SDS011;44744;51.894;5.080;2022-12-18T03:12:34;47.00;;;23.30;;
58966;SDS011;44744;51.894;5.080;2022-12-18T03:13:48;45.90;;;24.30;;
58966;SDS011;44744;51.894;5.080;2022-12-18T03:15:02;45.40;;;23.50;;
58966;SDS011;44744;51.894;5.080;2022-12-18T03:16:10;47.80;;;24.70;;
58966;SDS011;44744;51.894;5.080;2022-12-18T03:17:15;45.80;;;25.50;;
58966;SDS011;44744;51.894;5.080;2022-12-18T03:18:27;42.50;;;23.60;;
58966;SDS011;44744;51.894;5.080;2022-12-18T03:19:33;41.20;;;23.50;;
58966;SDS011;44744;51.894;5.080;2022-12-18T03:20:34;42.60;;;23.70;;
58966;SDS011;44744;51.894;5.080;2022-12-18T03:21:44;47.50;;;24.60;;
58966;SDS011;44744;51.894;5.080;2022-12-18T03:22:48;42.70;;;23.90;;
58966;SDS011;44744;51.894;5.080;2022-12-18T03:23:53;44.60;;;23.40;;
58966;SDS011;44744;51.894;5.080;2022-12-18T03:25:57;43.90;;;23.10;;
58966;SDS011;44744;51.894;5.080;2022-12-18T03:27:01;46.50;;;23.30;;
58966;SDS011;44744;51.894;5.080;2022-12-18T03:28:06;50.60;;;23.90;;
58966;SDS011;44744;51.894;5.080;2022-12-18T03:29:12;37.90;;;21.30;;
58966;SDS011;44744;51.894;5.080;2022-12-18T03:30:28;44.70;;;22.40;;
58966;SDS011;44744;51.894;5.080;2022-12-18T03:31:30;44.00;;;22.20;;
58966;SDS011;44744;51.894;5.080;2022-12-18T03:32:44;47.00;;;22.70;;
58966;SDS011;44744;51.894;5.080;2022-12-18T03:33:59;41.20;;;21.10;;
58966;SDS011;44744;51.894;5.080;2022-12-18T03:35:03;44.30;;;21.60;;
58966;SDS011;44744;51.894;5.080;2022-12-18T03:36:05;39.40;;;21.10;;
58966;SDS011;44744;51.894;5.080;2022-12-18T03:37:06;40.40;;;21.80;;
58966;SDS011;44744;51.894;5.080;2022-12-18T03:38:07;35.90;;;20.60;;
58966;SDS011;44744;51.894;5.080;2022-12-18T03:39:08;41.80;;;22.30;;
58966;SDS011;44744;51.894;5.080;2022-12-18T03:40:09;34.40;;;20.70;;
58966;SDS011;44744;51.894;5.080;2022-12-18T03:41:28;36.40;;;21.30;;
58966;SDS011;44744;51.894;5.080;2022-12-18T03:42:35;39.60;;;21.90;;
58966;SDS011;44744;51.894;5.080;2022-12-18T03:46:09;41.60;;;21.60;;
58966;SDS011;44744;51.894;5.080;2022-12-18T03:47:21;41.20;;;21.50;;
58966;SDS011;44744;51.894;5.080;2022-12-18T03:48:38;41.80;;;22.50;;
58966;SDS011;44744;51.894;5.080;2022-12-18T03:52:06;41.30;;;21.10;;
58966;SDS011;44744;51.894;5.080;2022-12-18T03:53:34;41.20;;;22.70;;
58966;SDS011;44744;51.894;5.080;2022-12-18T03:54:36;41.30;;;21.50;;
58966;SDS011;44744;51.894;5.080;2022-12-18T03:55:39;42.10;;;21.60;;
58966;SDS011;44744;51.894;5.080;2022-12-18T03:56:42;43.10;;;21.60;;
58966;SDS011;44744;51.894;5.080;2022-12-18T03:57:47;44.50;;;23.00;;
58966;SDS011;44744;51.894;5.080;2022-12-18T03:58:49;45.00;;;22.60;;
58966;SDS011;44744;51.894;5.080;2022-12-18T03:59:54;43.90;;;22.20;;
58966;SDS011;44744;51.894;5.080;2022-12-18T04:00:59;39.60;;;22.20;;
58966;SDS011;44744;51.894;5.080;2022-12-18T04:02:02;37.10;;;21.10;;
58966;SDS011;44744;51.894;5.080;2022-12-18T04:03:05;47.60;;;21.40;;
58966;SDS011;44744;51.894;5.080;2022-12-18T04:04:07;41.90;;;22.00;;
58966;SDS011;44744;51.894;5.080;2022-12-18T04:05:09;40.40;;;22.10;;
58966;SDS011;44744;51.894;5.080;2022-12-18T04:06:12;46.30;;;23.90;;
58966;SDS011;44744;51.894;5.080;2022-12-18T04:07:15;41.40;;;21.60;;
58966;SDS011;44744;51.894;5.080;2022-12-18T04:08:16;41.80;;;23.10;;
58966;SDS011;44744;51.894;5.080;2022-12-18T04:09:18;42.80;;;23.80;;
58966;SDS011;44744;51.894;5.080;2022-12-18T04:10:20;42.30;;;23.20;;
58966;SDS011;44744;51.894;5.080;2022-12-18T04:11:20;40.70;;;22.10;;
58966;SDS011;44744;51.894;5.080;2022-12-18T04:12:25;40.50;;;23.90;;
58966;SDS011;44744;51.894;5.080;2022-12-18T04:13:34;39.90;;;23.10;;
58966;SDS011;44744;51.894;5.080;2022-12-18T04:14:36;40.50;;;23.10;;
58966;SDS011;44744;51.894;5.080;2022-12-18T04:15:36;41.20;;;23.40;;
58966;SDS011;44744;51.894;5.080;2022-12-18T04:16:38;43.00;;;23.10;;
58966;SDS011;44744;51.894;5.080;2022-12-18T04:17:38;40.80;;;23.10;;
58966;SDS011;44744;51.894;5.080;2022-12-18T04:18:47;42.20;;;23.70;;
58966;SDS011;44744;51.894;5.080;2022-12-18T04:19:47;44.50;;;23.80;;
58966;SDS011;44744;51.894;5.080;2022-12-18T04:20:48;41.60;;;22.50;;
58966;SDS011;44744;51.894;5.080;2022-12-18T04:21:48;42.00;;;23.80;;
58966;SDS011;44744;51.894;5.080;2022-12-18T04:22:48;38.70;;;21.30;;
58966;SDS011;44744;51.894;5.080;2022-12-18T04:23:49;38.70;;;21.10;;
58966;SDS011;44744;51.894;5.080;2022-12-18T04:24:49;37.00;;;20.50;;
58966;SDS011;44744;51.894;5.080;2022-12-18T04:25:50;45.60;;;22.40;;
58966;SDS011;44744;51.894;5.080;2022-12-18T04:26:50;39.20;;;20.80;;
58966;SDS011;44744;51.894;5.080;2022-12-18T04:27:50;34.60;;;21.10;;
58966;SDS011;44744;51.894;5.080;2022-12-18T04:28:50;40.10;;;21.20;;
58966;SDS011;44744;51.894;5.080;2022-12-18T04:29:51;38.80;;;20.30;;
58966;SDS011;44744;51.894;5.080;2022-12-18T04:30:51;35.50;;;20.90;;
58966;SDS011;44744;51.894;5.080;2022-12-18T04:31:52;40.40;;;22.40;;
58966;SDS011;44744;51.894;5.080;2022-12-18T04:32:52;36.10;;;21.80;;
58966;SDS011;44744;51.894;5.080;2022-12-18T04:33:52;42.10;;;22.80;;
58966;SDS011;44744;51.894;5.080;2022-12-18T04:34:53;41.50;;;21.60;;
58966;SDS011;44744;51.894;5.080;2022-12-18T04:35:53;34.60;;;20.50;;
58966;SDS011;44744;51.894;5.080;2022-12-18T04:36:53;37.40;;;22.60;;
58966;SDS011;44744;51.894;5.080;2022-12-18T04:37:53;35.40;;;21.20;;
58966;SDS011;44744;51.894;5.080;2022-12-18T04:38:54;37.50;;;21.90;;
58966;SDS011;44744;51.894;5.080;2022-12-18T04:39:54;38.90;;;22.00;;
58966;SDS011;44744;51.894;5.080;2022-12-18T04:40:55;36.80;;;21.10;;
58966;SDS011;44744;51.894;5.080;2022-12-18T04:41:55;35.30;;;20.50;;
58966;SDS011;44744;51.894;5.080;2022-12-18T04:42:55;36.70;;;20.70;;
58966;SDS011;44744;51.894;5.080;2022-12-18T04:43:55;36.20;;;20.50;;
58966;SDS011;44744;51.894;5.080;2022-12-18T04:44:57;33.20;;;21.20;;
58966;SDS011;44744;51.894;5.080;2022-12-18T04:46:06;36.40;;;21.30;;
58966;SDS011;44744;51.894;5.080;2022-12-18T04:47:07;37.10;;;20.40;;
58966;SDS011;44744;51.894;5.080;2022-12-18T04:48:07;36.20;;;19.00;;
58966;SDS011;44744;51.894;5.080;2022-12-18T04:49:08;38.70;;;20.10;;
58966;SDS011;44744;51.894;5.080;2022-12-18T04:50:08;33.40;;;19.40;;
58966;SDS011;44744;51.894;5.080;2022-12-18T04:51:09;35.30;;;20.10;;
58966;SDS011;44744;51.894;5.080;2022-12-18T04:52:09;34.60;;;19.90;;
58966;SDS011;44744;51.894;5.080;2022-12-18T04:53:09;35.40;;;20.00;;
58966;SDS011;44744;51.894;5.080;2022-12-18T04:54:09;36.00;;;19.10;;
58966;SDS011;44744;51.894;5.080;2022-12-18T04:55:10;36.10;;;18.30;;
58966;SDS011;44744;51.894;5.080;2022-12-18T04:56:11;33.50;;;19.80;;
58966;SDS011;44744;51.894;5.080;2022-12-18T04:57:13;34.90;;;19.40;;
58966;SDS011;44744;51.894;5.080;2022-12-18T04:58:13;37.20;;;19.80;;
58966;SDS011;44744;51.894;5.080;2022-12-18T04:59:14;33.30;;;19.10;;
58966;SDS011;44744;51.894;5.080;2022-12-18T05:00:14;33.30;;;19.70;;
58966;SDS011;44744;51.894;5.080;2022-12-18T05:01:16;32.60;;;19.80;;
58966;SDS011;44744;51.894;5.080;2022-12-18T05:02:17;35.00;;;20.00;;
58966;SDS011;44744;51.894;5.080;2022-12-18T05:03:17;32.00;;;19.50;;
58966;SDS011;44744;51.894;5.080;2022-12-18T05:04:17;32.60;;;20.60;;
58966;SDS011;44744;51.894;5.080;2022-12-18T05:05:18;34.10;;;20.20;;
58966;SDS011;44744;51.894;5.080;2022-12-18T05:06:18;33.60;;;20.00;;
58966;SDS011;44744;51.894;5.080;2022-12-18T05:07:18;38.10;;;21.80;;
58966;SDS011;44744;51.894;5.080;2022-12-18T05:08:19;37.00;;;20.60;;
58966;SDS011;44744;51.894;5.080;2022-12-18T05:09:19;35.30;;;22.10;;
58966;SDS011;44744;51.894;5.080;2022-12-18T05:10:20;37.70;;;20.80;;
58966;SDS011;44744;51.894;5.080;2022-12-18T05:11:21;38.70;;;21.00;;
58966;SDS011;44744;51.894;5.080;2022-12-18T05:12:21;37.40;;;20.80;;
58966;SDS011;44744;51.894;5.080;2022-12-18T05:13:27;32.50;;;18.80;;
58966;SDS011;44744;51.894;5.080;2022-12-18T05:14:27;37.10;;;20.10;;
58966;SDS011;44744;51.894;5.080;2022-12-18T05:15:28;36.20;;;19.50;;
58966;SDS011;44744;51.894;5.080;2022-12-18T05:16:29;37.00;;;19.30;;
58966;SDS011;44744;51.894;5.080;2022-12-18T05:17:30;35.50;;;20.20;;
58966;SDS011;44744;51.894;5.080;2022-12-18T05:18:30;35.60;;;19.20;;
58966;SDS011;44744;51.894;5.080;2022-12-18T05:19:31;32.50;;;18.30;;
58966;SDS011;44744;51.894;5.080;2022-12-18T05:20:31;32.50;;;18.80;;
58966;SDS011;44744;51.894;5.080;2022-12-18T05:21:32;30.20;;;18.00;;
58966;SDS011;44744;51.894;5.080;2022-12-18T05:22:32;28.70;;;18.60;;
58966;SDS011;44744;51.894;5.080;2022-12-18T05:23:32;32.40;;;18.50;;
58966;SDS011;44744;51.894;5.080;2022-12-18T05:24:32;28.40;;;18.10;;
58966;SDS011;44744;51.894;5.080;2022-12-18T05:25:33;31.30;;;18.80;;
58966;SDS011;44744;51.894;5.080;2022-12-18T05:26:33;35.30;;;19.60;;
58966;SDS011;44744;51.894;5.080;2022-12-18T05:27:33;35.80;;;19.70;;
58966;SDS011;44744;51.894;5.080;2022-12-18T05:28:34;34.10;;;19.80;;
58966;SDS011;44744;51.894;5.080;2022-12-18T05:29:35;31.20;;;19.60;;
58966;SDS011;44744;51.894;5.080;2022-12-18T05:30:37;38.10;;;21.00;;
58966;SDS011;44744;51.894;5.080;2022-12-18T05:31:37;33.70;;;19.80;;
58966;SDS011;44744;51.894;5.080;2022-12-18T05:32:38;33.30;;;21.00;;
58966;SDS011;44744;51.894;5.080;2022-12-18T05:33:39;34.50;;;21.10;;
58966;SDS011;44744;51.894;5.080;2022-12-18T05:34:39;35.90;;;21.90;;
58966;SDS011;44744;51.894;5.080;2022-12-18T05:35:39;33.40;;;22.40;;
58966;SDS011;44744;51.894;5.080;2022-12-18T05:36:40;36.00;;;22.70;;
58966;SDS011;44744;51.894;5.080;2022-12-18T05:37:40;36.30;;;22.70;;
58966;SDS011;44744;51.894;5.080;2022-12-18T05:38:40;34.50;;;22.40;;
58966;SDS011;44744;51.894;5.080;2022-12-18T05:39:41;32.20;;;20.90;;
58966;SDS011;44744;51.894;5.080;2022-12-18T05:40:42;30.60;;;19.90;;
58966;SDS011;44744;51.894;5.080;2022-12-18T05:41:43;33.50;;;20.80;;
58966;SDS011;44744;51.894;5.080;2022-12-18T05:42:43;35.70;;;21.00;;
58966;SDS011;44744;51.894;5.080;2022-12-18T05:43:43;34.20;;;20.00;;
58966;SDS011;44744;51.894;5.080;2022-12-18T05:44:44;34.90;;;19.70;;
58966;SDS011;44744;51.894;5.080;2022-12-18T05:45:44;33.20;;;19.40;;
58966;SDS011;44744;51.894;5.080;2022-12-18T05:46:45;32.20;;;18.70;;
58966;SDS011;44744;51.894;5.080;2022-12-18T05:47:45;33.70;;;20.30;;
58966;SDS011;44744;51.894;5.080;2022-12-18T05:48:45;32.20;;;20.60;;
58966;SDS011;44744;51.894;5.080;2022-12-18T05:49:46;35.40;;;20.30;;
58966;SDS011;44744;51.894;5.080;2022-12-18T05:50:47;33.60;;;18.90;;
58966;SDS011;44744;51.894;5.080;2022-12-18T05:52:48;32.40;;;20.20;;
58966;SDS011;44744;51.894;5.080;2022-12-18T05:53:49;33.10;;;19.90;;
58966;SDS011;44744;51.894;5.080;2022-12-18T05:54:49;34.60;;;22.30;;
58966;SDS011;44744;51.894;5.080;2022-12-18T05:55:49;33.70;;;22.90;;
58966;SDS011;44744;51.894;5.080;2022-12-18T05:56:49;33.50;;;22.90;;
58966;SDS011;44744;51.894;5.080;2022-12-18T05:57:49;35.80;;;23.10;;
58966;SDS011;44744;51.894;5.080;2022-12-18T05:58:53;36.90;;;22.10;;
58966;SDS011;44744;51.894;5.080;2022-12-18T05:59:54;33.40;;;22.70;;
58966;SDS011;44744;51.894;5.080;2022-12-18T06:01:05;32.20;;;22.60;;
58966;SDS011;44744;51.894;5.080;2022-12-18T06:02:10;35.20;;;21.60;;
58966;SDS011;44744;51.894;5.080;2022-12-18T06:03:10;35.90;;;22.80;;
58966;SDS011;44744;51.894;5.080;2022-12-18T06:04:14;33.30;;;22.70;;
58966;SDS011;44744;51.894;5.080;2022-12-18T06:05:16;32.00;;;20.90;;
58966;SDS011;44744;51.894;5.080;2022-12-18T06:06:19;32.40;;;20.20;;
58966;SDS011;44744;51.894;5.080;2022-12-18T06:07:21;37.10;;;19.70;;
58966;SDS011;44744;51.894;5.080;2022-12-18T06:08:22;34.20;;;19.50;;
58966;SDS011;44744;51.894;5.080;2022-12-18T06:09:22;28.70;;;18.40;;
58966;SDS011;44744;51.894;5.080;2022-12-18T06:10:22;31.90;;;19.20;;
58966;SDS011;44744;51.894;5.080;2022-12-18T06:11:23;27.80;;;17.20;;
58966;SDS011;44744;51.894;5.080;2022-12-18T06:12:25;28.90;;;18.70;;
58966;SDS011;44744;51.894;5.080;2022-12-18T06:13:25;29.90;;;18.20;;
58966;SDS011;44744;51.894;5.080;2022-12-18T06:14:25;29.00;;;16.90;;
58966;SDS011;44744;51.894;5.080;2022-12-18T06:15:25;31.70;;;18.40;;
58966;SDS011;44744;51.894;5.080;2022-12-18T06:16:26;30.90;;;18.40;;
58966;SDS011;44744;51.894;5.080;2022-12-18T06:17:28;27.50;;;17.60;;
58966;SDS011;44744;51.894;5.080;2022-12-18T06:18:32;30.00;;;18.00;;
58966;SDS011;44744;51.894;5.080;2022-12-18T06:19:32;27.90;;;17.80;;
58966;SDS011;44744;51.894;5.080;2022-12-18T06:20:32;27.90;;;18.60;;
58966;SDS011;44744;51.894;5.080;2022-12-18T06:21:33;29.20;;;18.60;;
58966;SDS011;44744;51.894;5.080;2022-12-18T06:22:33;31.50;;;20.80;;
58966;SDS011;44744;51.894;5.080;2022-12-18T06:23:33;33.50;;;20.40;;
58966;SDS011;44744;51.894;5.080;2022-12-18T06:24:34;34.30;;;20.80;;
58966;SDS011;44744;51.894;5.080;2022-12-18T06:25:36;34.50;;;21.40;;
58966;SDS011;44744;51.894;5.080;2022-12-18T06:26:38;33.40;;;20.60;;
58966;SDS011;44744;51.894;5.080;2022-12-18T06:27:39;31.90;;;21.40;;
58966;SDS011;44744;51.894;5.080;2022-12-18T06:28:39;32.80;;;20.80;;
58966;SDS011;44744;51.894;5.080;2022-12-18T06:29:40;34.30;;;20.50;;
58966;SDS011;44744;51.894;5.080;2022-12-18T06:30:42;32.90;;;21.70;;
58966;SDS011;44744;51.894;5.080;2022-12-18T06:31:45;31.40;;;20.90;;